sensor_id;sensor_type;location;lat;lon;timestamp;temperature;humidity
12013;DHT22;6065;48.138;16.402;2024-03-08T00:00:44;5.70;99.90
12013;DHT22;6065;48.138;16.402;2024-03-08T00:03:12;5.60;99.90
12013;DHT22;6065;48.138;16.402;2024-03-08T00:05:39;5.60;99.90
12013;DHT22;6065;48.138;16.402;2024-03-08T00:08:06;5.60;99.90
12013;DHT22;6065;48.138;16.402;2024-03-08T00:10:35;5.60;99.90
12013;DHT22;6065;48.138;16.402;2024-03-08T00:13:02;5.70;99.90
12013;DHT22;6065;48.138;16.402;2024-03-08T00:15:29;5.70;99.90
12013;DHT22;6065;48.138;16.402;2024-03-08T00:17:57;5.70;99.90
12013;DHT22;6065;48.138;16.402;2024-03-08T00:20:26;5.60;99.90
12013;DHT22;6065;48.138;16.402;2024-03-08T00:22:52;5.70;99.90
12013;DHT22;6065;48.138;16.402;2024-03-08T00:25:19;5.60;99.90
12013;DHT22;6065;48.138;16.402;2024-03-08T00:27:46;5.60;99.90
12013;DHT22;6065;48.138;16.402;2024-03-08T00:30:14;5.60;99.90
12013;DHT22;6065;48.138;16.402;2024-03-08T00:32:41;5.60;99.90
12013;DHT22;6065;48.138;16.402;2024-03-08T00:35:08;5.60;99.90
12013;DHT22;6065;48.138;16.402;2024-03-08T00:37:36;5.60;99.90
12013;DHT22;6065;48.138;16.402;2024-03-08T00:40:03;5.60;99.90
12013;DHT22;6065;48.138;16.402;2024-03-08T00:42:34;5.60;99.90
12013;DHT22;6065;48.138;16.402;2024-03-08T00:45:01;5.60;99.90
12013;DHT22;6065;48.138;16.402;2024-03-08T00:47:28;5.60;99.90
12013;DHT22;6065;48.138;16.402;2024-03-08T00:49:55;5.60;99.90
12013;DHT22;6065;48.138;16.402;2024-03-08T00:52:22;5.50;99.90
12013;DHT22;6065;48.138;16.402;2024-03-08T00:54:50;5.50;99.90
12013;DHT22;6065;48.138;16.402;2024-03-08T00:57:17;5.50;99.90
12013;DHT22;6065;48.138;16.402;2024-03-08T00:59:44;5.60;99.90
12013;DHT22;6065;48.138;16.402;2024-03-08T01:02:11;5.50;99.90
12013;DHT22;6065;48.138;16.402;2024-03-08T01:04:38;5.50;99.90
12013;DHT22;6065;48.138;16.402;2024-03-08T01:07:05;5.50;99.90
12013;DHT22;6065;48.138;16.402;2024-03-08T01:09:32;5.50;99.90
12013;DHT22;6065;48.138;16.402;2024-03-08T01:12:00;5.50;99.90
12013;DHT22;6065;48.138;16.402;2024-03-08T01:14:27;5.50;99.90
12013;DHT22;6065;48.138;16.402;2024-03-08T01:16:56;5.50;99.90
12013;DHT22;6065;48.138;16.402;2024-03-08T01:19:23;5.50;99.90
12013;DHT22;6065;48.138;16.402;2024-03-08T01:21:49;5.50;99.90
12013;DHT22;6065;48.138;16.402;2024-03-08T01:24:16;5.40;99.90
12013;DHT22;6065;48.138;16.402;2024-03-08T01:26:43;5.40;99.90
12013;DHT22;6065;48.138;16.402;2024-03-08T01:29:11;5.40;99.90
12013;DHT22;6065;48.138;16.402;2024-03-08T01:31:38;5.40;99.90
12013;DHT22;6065;48.138;16.402;2024-03-08T01:34:05;5.30;99.90
12013;DHT22;6065;48.138;16.402;2024-03-08T01:36:32;5.30;99.90
12013;DHT22;6065;48.138;16.402;2024-03-08T01:38:58;5.30;99.90
12013;DHT22;6065;48.138;16.402;2024-03-08T01:41:25;5.40;99.90
12013;DHT22;6065;48.138;16.402;2024-03-08T01:43:55;5.30;99.90
12013;DHT22;6065;48.138;16.402;2024-03-08T01:46:23;5.30;99.90
12013;DHT22;6065;48.138;16.402;2024-03-08T01:48:50;5.30;99.90
12013;DHT22;6065;48.138;16.402;2024-03-08T01:51:18;5.30;99.90
12013;DHT22;6065;48.138;16.402;2024-03-08T01:53:45;5.30;99.90
12013;DHT22;6065;48.138;16.402;2024-03-08T01:56:12;5.30;99.90
12013;DHT22;6065;48.138;16.402;2024-03-08T01:58:40;5.30;99.90
12013;DHT22;6065;48.138;16.402;2024-03-08T02:01:08;5.30;99.90
12013;DHT22;6065;48.138;16.402;2024-03-08T02:03:38;5.30;99.90
12013;DHT22;6065;48.138;16.402;2024-03-08T02:06:05;5.30;99.90
12013;DHT22;6065;48.138;16.402;2024-03-08T02:08:35;5.30;99.90
12013;DHT22;6065;48.138;16.402;2024-03-08T02:11:02;5.20;99.90
12013;DHT22;6065;48.138;16.402;2024-03-08T02:13:30;5.10;99.90
12013;DHT22;6065;48.138;16.402;2024-03-08T02:15:57;5.10;99.90
12013;DHT22;6065;48.138;16.402;2024-03-08T02:18:24;5.10;99.90
12013;DHT22;6065;48.138;16.402;2024-03-08T02:20:52;5.10;99.90
12013;DHT22;6065;48.138;16.402;2024-03-08T02:23:19;5.00;99.90
12013;DHT22;6065;48.138;16.402;2024-03-08T02:25:46;5.10;99.90
12013;DHT22;6065;48.138;16.402;2024-03-08T02:28:13;5.10;99.90
12013;DHT22;6065;48.138;16.402;2024-03-08T02:30:39;5.10;99.90
12013;DHT22;6065;48.138;16.402;2024-03-08T02:33:06;5.10;99.90
12013;DHT22;6065;48.138;16.402;2024-03-08T02:35:34;5.10;99.90
12013;DHT22;6065;48.138;16.402;2024-03-08T02:38:03;5.10;99.90
12013;DHT22;6065;48.138;16.402;2024-03-08T02:40:30;5.10;99.90
12013;DHT22;6065;48.138;16.402;2024-03-08T02:42:57;5.00;99.90
12013;DHT22;6065;48.138;16.402;2024-03-08T02:45:24;5.00;99.90
12013;DHT22;6065;48.138;16.402;2024-03-08T02:47:51;5.00;99.90
12013;DHT22;6065;48.138;16.402;2024-03-08T02:50:18;5.00;99.90
12013;DHT22;6065;48.138;16.402;2024-03-08T02:52:45;5.00;99.90
12013;DHT22;6065;48.138;16.402;2024-03-08T02:55:14;4.90;99.90
12013;DHT22;6065;48.138;16.402;2024-03-08T02:57:41;4.90;99.90
12013;DHT22;6065;48.138;16.402;2024-03-08T03:00:09;4.90;99.90
12013;DHT22;6065;48.138;16.402;2024-03-08T03:02:36;4.90;99.90
12013;DHT22;6065;48.138;16.402;2024-03-08T03:05:03;5.00;99.90
12013;DHT22;6065;48.138;16.402;2024-03-08T03:07:31;5.00;99.90
12013;DHT22;6065;48.138;16.402;2024-03-08T03:09:58;5.00;99.90
12013;DHT22;6065;48.138;16.402;2024-03-08T03:12:27;5.00;99.90
12013;DHT22;6065;48.138;16.402;2024-03-08T03:14:54;5.00;99.90
12013;DHT22;6065;48.138;16.402;2024-03-08T03:17:21;5.00;99.90
12013;DHT22;6065;48.138;16.402;2024-03-08T03:19:48;5.00;99.90
12013;DHT22;6065;48.138;16.402;2024-03-08T03:22:15;5.00;99.90
12013;DHT22;6065;48.138;16.402;2024-03-08T03:24:42;4.90;99.90
12013;DHT22;6065;48.138;16.402;2024-03-08T03:27:09;4.90;99.90
12013;DHT22;6065;48.138;16.402;2024-03-08T03:29:38;4.90;99.90
12013;DHT22;6065;48.138;16.402;2024-03-08T03:32:05;4.90;99.90
12013;DHT22;6065;48.138;16.402;2024-03-08T03:34:33;4.90;99.90
12013;DHT22;6065;48.138;16.402;2024-03-08T03:37:01;5.00;99.90
12013;DHT22;6065;48.138;16.402;2024-03-08T03:39:28;5.00;99.90
12013;DHT22;6065;48.138;16.402;2024-03-08T03:41:57;5.00;99.90
12013;DHT22;6065;48.138;16.402;2024-03-08T03:44:24;5.00;99.90
12013;DHT22;6065;48.138;16.402;2024-03-08T03:46:52;5.10;99.90
12013;DHT22;6065;48.138;16.402;2024-03-08T03:49:19;5.10;99.90
12013;DHT22;6065;48.138;16.402;2024-03-08T03:51:45;5.10;99.90
12013;DHT22;6065;48.138;16.402;2024-03-08T03:54:12;5.10;99.90
12013;DHT22;6065;48.138;16.402;2024-03-08T03:56:39;5.00;99.90
12013;DHT22;6065;48.138;16.402;2024-03-08T03:59:06;5.00;99.90
12013;DHT22;6065;48.138;16.402;2024-03-08T04:01:33;5.00;99.90
12013;DHT22;6065;48.138;16.402;2024-03-08T04:04:02;4.90;99.90
12013;DHT22;6065;48.138;16.402;2024-03-08T04:06:28;4.90;99.90
12013;DHT22;6065;48.138;16.402;2024-03-08T04:08:55;4.90;99.90
12013;DHT22;6065;48.138;16.402;2024-03-08T04:11:22;4.90;99.90
12013;DHT22;6065;48.138;16.402;2024-03-08T04:13:49;4.90;99.90
12013;DHT22;6065;48.138;16.402;2024-03-08T04:16:16;4.90;99.90
12013;DHT22;6065;48.138;16.402;2024-03-08T04:18:44;4.90;99.90
12013;DHT22;6065;48.138;16.402;2024-03-08T04:21:12;4.90;99.90
12013;DHT22;6065;48.138;16.402;2024-03-08T04:23:39;4.90;99.90
12013;DHT22;6065;48.138;16.402;2024-03-08T04:26:06;4.90;99.90
12013;DHT22;6065;48.138;16.402;2024-03-08T04:28:34;4.90;99.90
12013;DHT22;6065;48.138;16.402;2024-03-08T04:31:02;4.90;99.90
12013;DHT22;6065;48.138;16.402;2024-03-08T04:33:29;4.90;99.90
12013;DHT22;6065;48.138;16.402;2024-03-08T04:35:56;4.90;99.90
12013;DHT22;6065;48.138;16.402;2024-03-08T04:38:24;4.90;99.90
12013;DHT22;6065;48.138;16.402;2024-03-08T04:43:27;4.90;99.90
12013;DHT22;6065;48.138;16.402;2024-03-08T04:48:23;4.90;99.90
12013;DHT22;6065;48.138;16.402;2024-03-08T04:50:52;4.90;99.90
12013;DHT22;6065;48.138;16.402;2024-03-08T04:53:19;4.90;99.90
12013;DHT22;6065;48.138;16.402;2024-03-08T04:55:47;4.80;99.90
12013;DHT22;6065;48.138;16.402;2024-03-08T04:58:14;4.90;99.90
12013;DHT22;6065;48.138;16.402;2024-03-08T05:00:41;4.80;99.90
12013;DHT22;6065;48.138;16.402;2024-03-08T05:03:08;4.80;99.90
12013;DHT22;6065;48.138;16.402;2024-03-08T05:05:34;4.80;99.90
12013;DHT22;6065;48.138;16.402;2024-03-08T05:08:01;4.80;99.90
12013;DHT22;6065;48.138;16.402;2024-03-08T05:10:28;4.80;99.90
12013;DHT22;6065;48.138;16.402;2024-03-08T05:12:57;4.80;99.90
12013;DHT22;6065;48.138;16.402;2024-03-08T05:15:23;4.80;99.90
12013;DHT22;6065;48.138;16.402;2024-03-08T05:17:50;4.80;99.90
12013;DHT22;6065;48.138;16.402;2024-03-08T05:20:17;4.80;99.90
12013;DHT22;6065;48.138;16.402;2024-03-08T05:22:47;4.80;99.90
12013;DHT22;6065;48.138;16.402;2024-03-08T05:25:14;4.80;99.90
12013;DHT22;6065;48.138;16.402;2024-03-08T05:27:41;4.90;99.90
12013;DHT22;6065;48.138;16.402;2024-03-08T05:30:10;4.80;99.90
12013;DHT22;6065;48.138;16.402;2024-03-08T05:32:40;4.80;99.90
12013;DHT22;6065;48.138;16.402;2024-03-08T05:35:09;4.80;99.90
12013;DHT22;6065;48.138;16.402;2024-03-08T05:37:37;4.80;99.90
12013;DHT22;6065;48.138;16.402;2024-03-08T05:40:05;4.80;99.90
12013;DHT22;6065;48.138;16.402;2024-03-08T05:42:35;4.80;99.90
12013;DHT22;6065;48.138;16.402;2024-03-08T05:45:02;4.80;99.90
12013;DHT22;6065;48.138;16.402;2024-03-08T05:47:31;4.80;99.90
12013;DHT22;6065;48.138;16.402;2024-03-08T05:49:58;4.80;99.90
12013;DHT22;6065;48.138;16.402;2024-03-08T05:52:24;4.80;99.90
12013;DHT22;6065;48.138;16.402;2024-03-08T05:54:52;4.90;99.90
12013;DHT22;6065;48.138;16.402;2024-03-08T05:57:19;4.90;99.90
12013;DHT22;6065;48.138;16.402;2024-03-08T05:59:47;4.80;99.90
12013;DHT22;6065;48.138;16.402;2024-03-08T06:02:14;4.80;99.90
12013;DHT22;6065;48.138;16.402;2024-03-08T06:04:46;4.80;99.90
12013;DHT22;6065;48.138;16.402;2024-03-08T06:07:13;4.80;99.90
12013;DHT22;6065;48.138;16.402;2024-03-08T06:09:40;4.80;99.90
12013;DHT22;6065;48.138;16.402;2024-03-08T06:12:10;4.80;99.90
12013;DHT22;6065;48.138;16.402;2024-03-08T06:14:37;4.70;99.90
12013;DHT22;6065;48.138;16.402;2024-03-08T06:17:04;4.80;99.90
12013;DHT22;6065;48.138;16.402;2024-03-08T06:19:32;4.80;99.90
12013;DHT22;6065;48.138;16.402;2024-03-08T06:22:00;4.80;99.90
12013;DHT22;6065;48.138;16.402;2024-03-08T06:24:30;4.80;99.90
12013;DHT22;6065;48.138;16.402;2024-03-08T06:26:57;4.80;99.90
12013;DHT22;6065;48.138;16.402;2024-03-08T06:29:24;4.80;99.90
12013;DHT22;6065;48.138;16.402;2024-03-08T06:31:51;4.80;99.90
12013;DHT22;6065;48.138;16.402;2024-03-08T06:34:19;4.80;99.90
12013;DHT22;6065;48.138;16.402;2024-03-08T06:36:45;4.80;99.90
12013;DHT22;6065;48.138;16.402;2024-03-08T06:39:14;4.80;99.90
12013;DHT22;6065;48.138;16.402;2024-03-08T06:41:40;4.80;99.90
12013;DHT22;6065;48.138;16.402;2024-03-08T06:44:09;4.80;99.90
12013;DHT22;6065;48.138;16.402;2024-03-08T06:46:36;4.80;99.90
12013;DHT22;6065;48.138;16.402;2024-03-08T06:49:03;4.80;99.90
12013;DHT22;6065;48.138;16.402;2024-03-08T06:51:30;4.80;99.90
12013;DHT22;6065;48.138;16.402;2024-03-08T06:53:57;4.80;99.90
12013;DHT22;6065;48.138;16.402;2024-03-08T06:56:25;4.80;99.90
12013;DHT22;6065;48.138;16.402;2024-03-08T06:58:52;4.70;99.90
12013;DHT22;6065;48.138;16.402;2024-03-08T07:01:19;4.70;99.90
12013;DHT22;6065;48.138;16.402;2024-03-08T07:03:46;4.70;99.90
12013;DHT22;6065;48.138;16.402;2024-03-08T07:06:13;4.70;99.90
12013;DHT22;6065;48.138;16.402;2024-03-08T07:08:42;4.70;99.90
12013;DHT22;6065;48.138;16.402;2024-03-08T07:11:11;4.70;99.90
12013;DHT22;6065;48.138;16.402;2024-03-08T07:13:39;4.70;99.90
12013;DHT22;6065;48.138;16.402;2024-03-08T07:16:07;4.70;99.90
12013;DHT22;6065;48.138;16.402;2024-03-08T07:18:34;4.80;99.90
12013;DHT22;6065;48.138;16.402;2024-03-08T07:21:05;4.70;99.90
12013;DHT22;6065;48.138;16.402;2024-03-08T07:23:32;4.80;99.90
12013;DHT22;6065;48.138;16.402;2024-03-08T07:26:28;4.90;99.90
12013;DHT22;6065;48.138;16.402;2024-03-08T07:28:57;4.80;99.90
12013;DHT22;6065;48.138;16.402;2024-03-08T07:31:25;4.80;99.90
12013;DHT22;6065;48.138;16.402;2024-03-08T07:34:03;4.80;99.90
12013;DHT22;6065;48.138;16.402;2024-03-08T07:36:32;4.80;99.90
12013;DHT22;6065;48.138;16.402;2024-03-08T07:38:59;4.80;99.90
12013;DHT22;6065;48.138;16.402;2024-03-08T07:41:26;4.90;99.90
12013;DHT22;6065;48.138;16.402;2024-03-08T07:43:53;4.90;99.90
12013;DHT22;6065;48.138;16.402;2024-03-08T07:49:03;4.90;99.90
12013;DHT22;6065;48.138;16.402;2024-03-08T07:51:30;4.80;99.90
12013;DHT22;6065;48.138;16.402;2024-03-08T07:54:00;4.90;99.90
12013;DHT22;6065;48.138;16.402;2024-03-08T07:56:26;4.90;99.90
12013;DHT22;6065;48.138;16.402;2024-03-08T07:58:53;4.90;99.90
12013;DHT22;6065;48.138;16.402;2024-03-08T08:01:20;4.90;99.90
12013;DHT22;6065;48.138;16.402;2024-03-08T08:03:47;4.90;99.90
12013;DHT22;6065;48.138;16.402;2024-03-08T08:06:16;5.00;99.90
12013;DHT22;6065;48.138;16.402;2024-03-08T08:08:42;5.00;99.90
12013;DHT22;6065;48.138;16.402;2024-03-08T08:11:08;5.00;99.90
12013;DHT22;6065;48.138;16.402;2024-03-08T08:13:36;5.00;99.90
12013;DHT22;6065;48.138;16.402;2024-03-08T08:16:04;4.90;99.90
12013;DHT22;6065;48.138;16.402;2024-03-08T08:18:31;5.00;99.90
12013;DHT22;6065;48.138;16.402;2024-03-08T08:20:58;5.00;99.90
12013;DHT22;6065;48.138;16.402;2024-03-08T08:23:27;4.90;99.90
12013;DHT22;6065;48.138;16.402;2024-03-08T08:25:54;5.00;99.90
12013;DHT22;6065;48.138;16.402;2024-03-08T08:28:21;4.90;99.90
12013;DHT22;6065;48.138;16.402;2024-03-08T08:30:50;4.80;99.90
12013;DHT22;6065;48.138;16.402;2024-03-08T08:33:17;4.70;99.90
12013;DHT22;6065;48.138;16.402;2024-03-08T08:35:45;4.80;99.90
12013;DHT22;6065;48.138;16.402;2024-03-08T08:38:13;4.70;99.90
12013;DHT22;6065;48.138;16.402;2024-03-08T08:40:41;4.70;99.90
12013;DHT22;6065;48.138;16.402;2024-03-08T08:43:08;4.80;99.90
12013;DHT22;6065;48.138;16.402;2024-03-08T08:45:35;4.70;99.90
12013;DHT22;6065;48.138;16.402;2024-03-08T08:48:02;4.80;99.90
12013;DHT22;6065;48.138;16.402;2024-03-08T08:50:30;4.80;99.90
12013;DHT22;6065;48.138;16.402;2024-03-08T08:52:57;4.80;99.90
12013;DHT22;6065;48.138;16.402;2024-03-08T08:55:24;4.80;99.90
12013;DHT22;6065;48.138;16.402;2024-03-08T08:57:53;4.80;99.90
12013;DHT22;6065;48.138;16.402;2024-03-08T09:00:21;4.80;99.90
12013;DHT22;6065;48.138;16.402;2024-03-08T09:02:52;4.80;99.90
12013;DHT22;6065;48.138;16.402;2024-03-08T09:05:20;4.80;99.90
12013;DHT22;6065;48.138;16.402;2024-03-08T09:07:49;4.80;99.90
12013;DHT22;6065;48.138;16.402;2024-03-08T09:10:16;4.80;99.90
12013;DHT22;6065;48.138;16.402;2024-03-08T09:12:44;4.80;99.90
12013;DHT22;6065;48.138;16.402;2024-03-08T09:15:12;4.70;99.90
12013;DHT22;6065;48.138;16.402;2024-03-08T09:17:39;4.70;99.90
12013;DHT22;6065;48.138;16.402;2024-03-08T09:20:06;4.70;99.90
12013;DHT22;6065;48.138;16.402;2024-03-08T09:22:34;4.60;99.90
12013;DHT22;6065;48.138;16.402;2024-03-08T09:25:01;4.50;99.90
12013;DHT22;6065;48.138;16.402;2024-03-08T09:27:30;4.50;99.90
12013;DHT22;6065;48.138;16.402;2024-03-08T09:29:57;4.50;99.90
12013;DHT22;6065;48.138;16.402;2024-03-08T09:32:25;4.50;99.90
12013;DHT22;6065;48.138;16.402;2024-03-08T09:34:52;4.50;99.90
12013;DHT22;6065;48.138;16.402;2024-03-08T09:37:21;4.60;99.90
12013;DHT22;6065;48.138;16.402;2024-03-08T09:39:48;4.60;99.90
12013;DHT22;6065;48.138;16.402;2024-03-08T09:42:15;4.60;99.90
12013;DHT22;6065;48.138;16.402;2024-03-08T09:44:45;4.60;99.90
12013;DHT22;6065;48.138;16.402;2024-03-08T09:47:13;4.60;99.90
12013;DHT22;6065;48.138;16.402;2024-03-08T09:49:41;4.70;99.90
12013;DHT22;6065;48.138;16.402;2024-03-08T09:52:08;4.80;99.90
12013;DHT22;6065;48.138;16.402;2024-03-08T09:54:35;4.80;99.90
12013;DHT22;6065;48.138;16.402;2024-03-08T09:57:03;4.80;99.90
12013;DHT22;6065;48.138;16.402;2024-03-08T09:59:30;4.90;99.90
12013;DHT22;6065;48.138;16.402;2024-03-08T10:02:12;4.90;99.90
12013;DHT22;6065;48.138;16.402;2024-03-08T10:04:41;5.00;99.90
12013;DHT22;6065;48.138;16.402;2024-03-08T10:07:08;5.00;99.90
12013;DHT22;6065;48.138;16.402;2024-03-08T10:09:36;5.00;99.90
12013;DHT22;6065;48.138;16.402;2024-03-08T10:14:38;5.00;99.90
12013;DHT22;6065;48.138;16.402;2024-03-08T10:17:06;5.10;99.90
12013;DHT22;6065;48.138;16.402;2024-03-08T10:19:33;5.10;99.90
12013;DHT22;6065;48.138;16.402;2024-03-08T10:25:00;5.20;99.90
12013;DHT22;6065;48.138;16.402;2024-03-08T10:27:27;5.30;99.90
12013;DHT22;6065;48.138;16.402;2024-03-08T10:29:54;5.30;99.90
12013;DHT22;6065;48.138;16.402;2024-03-08T10:32:21;5.40;99.90
12013;DHT22;6065;48.138;16.402;2024-03-08T10:34:49;5.50;99.90
12013;DHT22;6065;48.138;16.402;2024-03-08T10:37:16;5.60;99.90
12013;DHT22;6065;48.138;16.402;2024-03-08T10:39:49;5.70;99.90
12013;DHT22;6065;48.138;16.402;2024-03-08T10:42:21;5.80;99.90
12013;DHT22;6065;48.138;16.402;2024-03-08T10:44:53;5.90;99.90
12013;DHT22;6065;48.138;16.402;2024-03-08T10:47:27;6.10;99.90
12013;DHT22;6065;48.138;16.402;2024-03-08T10:49:59;6.20;99.90
12013;DHT22;6065;48.138;16.402;2024-03-08T10:52:29;6.30;99.90
12013;DHT22;6065;48.138;16.402;2024-03-08T10:54:56;6.40;99.90
12013;DHT22;6065;48.138;16.402;2024-03-08T10:57:25;6.40;99.90
12013;DHT22;6065;48.138;16.402;2024-03-08T10:59:53;6.50;99.90
12013;DHT22;6065;48.138;16.402;2024-03-08T11:02:20;6.50;99.90
12013;DHT22;6065;48.138;16.402;2024-03-08T11:04:48;6.50;99.90
12013;DHT22;6065;48.138;16.402;2024-03-08T11:07:21;6.40;99.90
12013;DHT22;6065;48.138;16.402;2024-03-08T11:09:48;6.50;99.90
12013;DHT22;6065;48.138;16.402;2024-03-08T11:12:19;6.50;99.90
12013;DHT22;6065;48.138;16.402;2024-03-08T11:14:47;6.60;99.90
12013;DHT22;6065;48.138;16.402;2024-03-08T11:17:15;6.60;99.90
12013;DHT22;6065;48.138;16.402;2024-03-08T11:19:46;6.70;99.90
12013;DHT22;6065;48.138;16.402;2024-03-08T11:22:20;6.70;99.90
12013;DHT22;6065;48.138;16.402;2024-03-08T11:24:49;6.80;99.90
12013;DHT22;6065;48.138;16.402;2024-03-08T11:27:16;6.80;99.90
12013;DHT22;6065;48.138;16.402;2024-03-08T11:29:43;6.80;99.90
12013;DHT22;6065;48.138;16.402;2024-03-08T11:32:12;6.90;99.90
12013;DHT22;6065;48.138;16.402;2024-03-08T11:34:41;7.00;99.90
12013;DHT22;6065;48.138;16.402;2024-03-08T11:37:13;7.20;99.90
12013;DHT22;6065;48.138;16.402;2024-03-08T11:39:40;7.30;99.90
12013;DHT22;6065;48.138;16.402;2024-03-08T11:42:07;7.30;99.90
12013;DHT22;6065;48.138;16.402;2024-03-08T11:44:36;7.30;99.90
12013;DHT22;6065;48.138;16.402;2024-03-08T11:47:07;7.20;99.90
12013;DHT22;6065;48.138;16.402;2024-03-08T11:49:37;7.20;99.90
12013;DHT22;6065;48.138;16.402;2024-03-08T11:52:04;7.20;99.90
12013;DHT22;6065;48.138;16.402;2024-03-08T11:54:33;7.10;99.90
12013;DHT22;6065;48.138;16.402;2024-03-08T11:57:01;7.10;99.90
12013;DHT22;6065;48.138;16.402;2024-03-08T11:59:28;7.10;99.90
12013;DHT22;6065;48.138;16.402;2024-03-08T12:01:58;7.10;99.90
12013;DHT22;6065;48.138;16.402;2024-03-08T12:04:24;7.10;99.90
12013;DHT22;6065;48.138;16.402;2024-03-08T12:06:52;7.10;99.90
12013;DHT22;6065;48.138;16.402;2024-03-08T12:09:19;7.00;99.90
12013;DHT22;6065;48.138;16.402;2024-03-08T12:11:47;7.10;99.90
12013;DHT22;6065;48.138;16.402;2024-03-08T12:14:16;7.00;99.90
12013;DHT22;6065;48.138;16.402;2024-03-08T12:16:43;7.00;99.90
12013;DHT22;6065;48.138;16.402;2024-03-08T12:19:10;7.00;99.90
12013;DHT22;6065;48.138;16.402;2024-03-08T12:21:38;7.00;99.90
12013;DHT22;6065;48.138;16.402;2024-03-08T12:24:14;7.10;99.90
12013;DHT22;6065;48.138;16.402;2024-03-08T12:26:42;7.10;99.90
12013;DHT22;6065;48.138;16.402;2024-03-08T12:29:16;7.10;99.90
12013;DHT22;6065;48.138;16.402;2024-03-08T12:31:45;7.10;99.90
12013;DHT22;6065;48.138;16.402;2024-03-08T12:34:12;7.10;99.90
12013;DHT22;6065;48.138;16.402;2024-03-08T12:36:43;7.10;99.90
12013;DHT22;6065;48.138;16.402;2024-03-08T12:39:14;7.10;99.90
12013;DHT22;6065;48.138;16.402;2024-03-08T12:41:42;7.10;99.90
12013;DHT22;6065;48.138;16.402;2024-03-08T12:52:25;7.10;99.90
12013;DHT22;6065;48.138;16.402;2024-03-08T12:54:53;7.10;99.90
12013;DHT22;6065;48.138;16.402;2024-03-08T12:57:20;7.20;99.90
12013;DHT22;6065;48.138;16.402;2024-03-08T12:59:47;7.10;99.90
12013;DHT22;6065;48.138;16.402;2024-03-08T13:02:15;7.20;99.90
12013;DHT22;6065;48.138;16.402;2024-03-08T13:04:42;7.20;99.90
12013;DHT22;6065;48.138;16.402;2024-03-08T13:07:09;7.20;99.90
12013;DHT22;6065;48.138;16.402;2024-03-08T13:09:36;7.20;99.90
12013;DHT22;6065;48.138;16.402;2024-03-08T13:12:05;7.20;99.90
12013;DHT22;6065;48.138;16.402;2024-03-08T13:14:33;7.20;99.90
12013;DHT22;6065;48.138;16.402;2024-03-08T13:17:00;7.20;99.90
12013;DHT22;6065;48.138;16.402;2024-03-08T13:19:29;7.20;99.90
12013;DHT22;6065;48.138;16.402;2024-03-08T13:21:56;7.30;99.90
12013;DHT22;6065;48.138;16.402;2024-03-08T13:24:23;7.30;99.90
12013;DHT22;6065;48.138;16.402;2024-03-08T13:26:50;7.30;99.90
12013;DHT22;6065;48.138;16.402;2024-03-08T13:29:18;7.30;99.90
12013;DHT22;6065;48.138;16.402;2024-03-08T13:31:46;7.40;99.90
12013;DHT22;6065;48.138;16.402;2024-03-08T13:34:17;7.30;99.90
12013;DHT22;6065;48.138;16.402;2024-03-08T13:36:43;7.40;99.90
12013;DHT22;6065;48.138;16.402;2024-03-08T13:39:12;7.40;99.90
12013;DHT22;6065;48.138;16.402;2024-03-08T13:41:41;7.40;99.90
12013;DHT22;6065;48.138;16.402;2024-03-08T13:44:08;7.40;99.90
12013;DHT22;6065;48.138;16.402;2024-03-08T13:46:36;7.40;99.90
12013;DHT22;6065;48.138;16.402;2024-03-08T13:49:03;7.40;99.90
12013;DHT22;6065;48.138;16.402;2024-03-08T13:51:33;7.40;99.90
12013;DHT22;6065;48.138;16.402;2024-03-08T13:54:00;7.40;99.90
12013;DHT22;6065;48.138;16.402;2024-03-08T13:56:27;7.50;99.90
12013;DHT22;6065;48.138;16.402;2024-03-08T13:58:55;7.50;99.90
12013;DHT22;6065;48.138;16.402;2024-03-08T14:01:22;7.50;99.90
12013;DHT22;6065;48.138;16.402;2024-03-08T14:03:51;7.50;99.90
12013;DHT22;6065;48.138;16.402;2024-03-08T14:06:18;7.50;99.90
12013;DHT22;6065;48.138;16.402;2024-03-08T14:08:45;7.50;99.90
12013;DHT22;6065;48.138;16.402;2024-03-08T14:11:11;7.50;99.90
12013;DHT22;6065;48.138;16.402;2024-03-08T14:13:41;7.50;99.90
12013;DHT22;6065;48.138;16.402;2024-03-08T14:16:10;7.50;99.90
12013;DHT22;6065;48.138;16.402;2024-03-08T14:18:37;7.60;99.90
12013;DHT22;6065;48.138;16.402;2024-03-08T14:21:05;7.60;99.90
12013;DHT22;6065;48.138;16.402;2024-03-08T14:23:33;7.60;99.90
12013;DHT22;6065;48.138;16.402;2024-03-08T14:26:01;7.60;99.90
12013;DHT22;6065;48.138;16.402;2024-03-08T14:28:28;7.60;99.90
12013;DHT22;6065;48.138;16.402;2024-03-08T14:30:55;7.70;99.90
12013;DHT22;6065;48.138;16.402;2024-03-08T14:33:22;7.70;99.90
12013;DHT22;6065;48.138;16.402;2024-03-08T14:35:51;7.70;99.90
12013;DHT22;6065;48.138;16.402;2024-03-08T14:38:19;7.60;99.90
12013;DHT22;6065;48.138;16.402;2024-03-08T14:40:46;7.70;99.90
12013;DHT22;6065;48.138;16.402;2024-03-08T14:43:13;7.70;99.90
12013;DHT22;6065;48.138;16.402;2024-03-08T14:45:40;7.70;99.90
12013;DHT22;6065;48.138;16.402;2024-03-08T14:48:07;7.70;99.90
12013;DHT22;6065;48.138;16.402;2024-03-08T14:50:37;7.70;99.90
12013;DHT22;6065;48.138;16.402;2024-03-08T14:53:04;7.70;99.90
12013;DHT22;6065;48.138;16.402;2024-03-08T14:55:33;7.70;99.90
12013;DHT22;6065;48.138;16.402;2024-03-08T14:58:00;7.70;99.90
12013;DHT22;6065;48.138;16.402;2024-03-08T15:00:27;7.70;99.90
12013;DHT22;6065;48.138;16.402;2024-03-08T15:02:59;7.80;99.90
12013;DHT22;6065;48.138;16.402;2024-03-08T15:05:27;7.80;99.90
12013;DHT22;6065;48.138;16.402;2024-03-08T15:07:57;7.80;99.90
12013;DHT22;6065;48.138;16.402;2024-03-08T15:10:26;7.70;99.90
12013;DHT22;6065;48.138;16.402;2024-03-08T15:12:55;7.70;99.90
12013;DHT22;6065;48.138;16.402;2024-03-08T15:15:24;7.60;99.90
12013;DHT22;6065;48.138;16.402;2024-03-08T15:17:51;7.60;99.90
12013;DHT22;6065;48.138;16.402;2024-03-08T15:20:19;7.60;99.90
12013;DHT22;6065;48.138;16.402;2024-03-08T15:22:50;7.60;99.90
12013;DHT22;6065;48.138;16.402;2024-03-08T15:25:20;7.60;99.90
12013;DHT22;6065;48.138;16.402;2024-03-08T15:27:51;7.60;99.90
12013;DHT22;6065;48.138;16.402;2024-03-08T15:30:19;7.60;99.90
12013;DHT22;6065;48.138;16.402;2024-03-08T15:32:48;7.60;99.90
12013;DHT22;6065;48.138;16.402;2024-03-08T15:35:15;7.60;99.90
12013;DHT22;6065;48.138;16.402;2024-03-08T15:37:43;7.60;99.90
12013;DHT22;6065;48.138;16.402;2024-03-08T15:40:10;7.60;99.90
12013;DHT22;6065;48.138;16.402;2024-03-08T15:42:48;7.50;99.90
12013;DHT22;6065;48.138;16.402;2024-03-08T15:45:16;7.50;99.90
12013;DHT22;6065;48.138;16.402;2024-03-08T15:47:44;7.50;99.90
12013;DHT22;6065;48.138;16.402;2024-03-08T15:50:11;7.50;99.90
12013;DHT22;6065;48.138;16.402;2024-03-08T15:52:39;7.50;99.90
12013;DHT22;6065;48.138;16.402;2024-03-08T15:55:07;7.40;99.90
12013;DHT22;6065;48.138;16.402;2024-03-08T15:57:33;7.40;99.90
12013;DHT22;6065;48.138;16.402;2024-03-08T16:00:00;7.40;99.90
12013;DHT22;6065;48.138;16.402;2024-03-08T16:02:39;7.40;99.90
12013;DHT22;6065;48.138;16.402;2024-03-08T16:05:07;7.40;99.90
12013;DHT22;6065;48.138;16.402;2024-03-08T16:07:37;7.40;99.90
12013;DHT22;6065;48.138;16.402;2024-03-08T16:10:04;7.30;99.90